sensor_id;sensor_type;location;lat;lon;timestamp;temperature;humidity
11538;DHT22;50159;49.426;11.182;2023-05-14T00:00:04;7.80;99.90
11538;DHT22;50159;49.426;11.182;2023-05-14T00:02:32;7.70;99.90
11538;DHT22;50159;49.426;11.182;2023-05-14T00:04:58;7.70;99.90
11538;DHT22;50159;49.426;11.182;2023-05-14T00:07:25;7.70;99.90
11538;DHT22;50159;49.426;11.182;2023-05-14T00:09:57;7.70;99.90
11538;DHT22;50159;49.426;11.182;2023-05-14T00:12:24;7.60;99.90
11538;DHT22;50159;49.426;11.182;2023-05-14T00:14:52;7.60;99.90
11538;DHT22;50159;49.426;11.182;2023-05-14T00:17:19;7.70;99.90
11538;DHT22;50159;49.426;11.182;2023-05-14T00:19:46;7.70;99.90
11538;DHT22;50159;49.426;11.182;2023-05-14T00:22:12;7.60;99.90
11538;DHT22;50159;49.426;11.182;2023-05-14T00:24:39;7.60;99.90
11538;DHT22;50159;49.426;11.182;2023-05-14T00:27:06;7.60;99.90
11538;DHT22;50159;49.426;11.182;2023-05-14T00:29:32;7.60;99.90
11538;DHT22;50159;49.426;11.182;2023-05-14T00:31:59;7.60;99.90
11538;DHT22;50159;49.426;11.182;2023-05-14T00:34:26;7.60;99.90
11538;DHT22;50159;49.426;11.182;2023-05-14T00:36:52;7.60;99.90
11538;DHT22;50159;49.426;11.182;2023-05-14T00:39:19;7.60;99.90
11538;DHT22;50159;49.426;11.182;2023-05-14T00:41:46;7.70;99.90
11538;DHT22;50159;49.426;11.182;2023-05-14T00:44:12;7.70;99.90
11538;DHT22;50159;49.426;11.182;2023-05-14T00:46:39;7.70;99.90
11538;DHT22;50159;49.426;11.182;2023-05-14T00:49:06;7.70;99.90
11538;DHT22;50159;49.426;11.182;2023-05-14T00:51:33;7.80;99.90
11538;DHT22;50159;49.426;11.182;2023-05-14T00:54:00;7.80;99.90
11538;DHT22;50159;49.426;11.182;2023-05-14T00:56:26;7.90;99.90
11538;DHT22;50159;49.426;11.182;2023-05-14T00:58:53;7.90;99.90
11538;DHT22;50159;49.426;11.182;2023-05-14T01:01:20;7.90;99.90
11538;DHT22;50159;49.426;11.182;2023-05-14T01:03:47;8.00;99.90
11538;DHT22;50159;49.426;11.182;2023-05-14T01:06:21;8.00;99.90
11538;DHT22;50159;49.426;11.182;2023-05-14T01:09:15;8.00;99.90
11538;DHT22;50159;49.426;11.182;2023-05-14T01:11:54;8.00;99.90
11538;DHT22;50159;49.426;11.182;2023-05-14T01:17:10;8.00;99.90
11538;DHT22;50159;49.426;11.182;2023-05-14T01:19:43;8.10;99.90
11538;DHT22;50159;49.426;11.182;2023-05-14T01:22:10;8.10;99.90
11538;DHT22;50159;49.426;11.182;2023-05-14T01:24:37;8.10;99.90
11538;DHT22;50159;49.426;11.182;2023-05-14T01:27:24;8.20;99.90
11538;DHT22;50159;49.426;11.182;2023-05-14T01:32:38;8.20;99.90
11538;DHT22;50159;49.426;11.182;2023-05-14T01:35:06;8.20;99.90
11538;DHT22;50159;49.426;11.182;2023-05-14T01:37:34;8.20;99.90
11538;DHT22;50159;49.426;11.182;2023-05-14T01:40:03;8.20;99.90
11538;DHT22;50159;49.426;11.182;2023-05-14T01:42:30;8.30;99.90
11538;DHT22;50159;49.426;11.182;2023-05-14T01:44:57;8.30;99.90
11538;DHT22;50159;49.426;11.182;2023-05-14T01:47:23;8.30;99.90
11538;DHT22;50159;49.426;11.182;2023-05-14T01:49:50;8.30;99.90
11538;DHT22;50159;49.426;11.182;2023-05-14T01:52:17;8.30;99.90
11538;DHT22;50159;49.426;11.182;2023-05-14T01:54:47;8.40;99.90
11538;DHT22;50159;49.426;11.182;2023-05-14T01:57:13;8.40;99.90
11538;DHT22;50159;49.426;11.182;2023-05-14T01:59:40;8.40;99.90
11538;DHT22;50159;49.426;11.182;2023-05-14T02:02:06;8.40;99.90
11538;DHT22;50159;49.426;11.182;2023-05-14T02:04:33;8.40;99.90
11538;DHT22;50159;49.426;11.182;2023-05-14T02:07:00;8.40;99.90
11538;DHT22;50159;49.426;11.182;2023-05-14T02:09:27;8.30;99.90
11538;DHT22;50159;49.426;11.182;2023-05-14T02:11:54;8.30;99.90
11538;DHT22;50159;49.426;11.182;2023-05-14T02:14:20;8.30;99.90
11538;DHT22;50159;49.426;11.182;2023-05-14T02:16:47;8.40;99.90
11538;DHT22;50159;49.426;11.182;2023-05-14T02:19:14;8.40;99.90
11538;DHT22;50159;49.426;11.182;2023-05-14T02:21:41;8.40;99.90
11538;DHT22;50159;49.426;11.182;2023-05-14T02:24:07;8.40;99.90
11538;DHT22;50159;49.426;11.182;2023-05-14T02:26:34;8.50;99.90
11538;DHT22;50159;49.426;11.182;2023-05-14T02:29:00;8.50;99.90
11538;DHT22;50159;49.426;11.182;2023-05-14T02:31:27;8.50;99.90
11538;DHT22;50159;49.426;11.182;2023-05-14T02:33:54;8.50;99.90
11538;DHT22;50159;49.426;11.182;2023-05-14T02:36:21;8.50;99.90
11538;DHT22;50159;49.426;11.182;2023-05-14T02:38:47;8.50;99.90
11538;DHT22;50159;49.426;11.182;2023-05-14T02:41:15;8.50;99.90
11538;DHT22;50159;49.426;11.182;2023-05-14T02:43:42;8.50;99.90
11538;DHT22;50159;49.426;11.182;2023-05-14T02:46:09;8.40;99.90
11538;DHT22;50159;49.426;11.182;2023-05-14T02:48:35;8.40;99.90
11538;DHT22;50159;49.426;11.182;2023-05-14T02:51:02;8.50;99.90
11538;DHT22;50159;49.426;11.182;2023-05-14T02:53:29;8.50;99.90
11538;DHT22;50159;49.426;11.182;2023-05-14T02:55:55;8.60;99.90
11538;DHT22;50159;49.426;11.182;2023-05-14T02:58:22;8.60;99.90
11538;DHT22;50159;49.426;11.182;2023-05-14T03:00:54;8.60;99.90
11538;DHT22;50159;49.426;11.182;2023-05-14T03:03:21;8.60;99.90
11538;DHT22;50159;49.426;11.182;2023-05-14T03:05:48;8.70;99.90
11538;DHT22;50159;49.426;11.182;2023-05-14T03:08:15;8.70;99.90
11538;DHT22;50159;49.426;11.182;2023-05-14T03:10:41;8.70;99.90
11538;DHT22;50159;49.426;11.182;2023-05-14T03:13:08;8.80;99.90
11538;DHT22;50159;49.426;11.182;2023-05-14T03:15:35;8.80;99.90
11538;DHT22;50159;49.426;11.182;2023-05-14T03:18:01;8.80;99.90
11538;DHT22;50159;49.426;11.182;2023-05-14T03:20:28;8.80;99.90
11538;DHT22;50159;49.426;11.182;2023-05-14T03:22:54;8.80;99.90
11538;DHT22;50159;49.426;11.182;2023-05-14T03:25:21;8.70;99.90
11538;DHT22;50159;49.426;11.182;2023-05-14T03:27:48;8.70;99.90
11538;DHT22;50159;49.426;11.182;2023-05-14T03:30:15;8.70;99.90
11538;DHT22;50159;49.426;11.182;2023-05-14T03:32:41;8.70;99.90
11538;DHT22;50159;49.426;11.182;2023-05-14T03:35:08;8.70;99.90
11538;DHT22;50159;49.426;11.182;2023-05-14T03:37:35;8.70;99.90
11538;DHT22;50159;49.426;11.182;2023-05-14T03:40:02;8.70;99.90
11538;DHT22;50159;49.426;11.182;2023-05-14T03:42:28;8.90;99.90
11538;DHT22;50159;49.426;11.182;2023-05-14T03:44:55;8.80;99.90
11538;DHT22;50159;49.426;11.182;2023-05-14T03:47:22;8.80;99.90
11538;DHT22;50159;49.426;11.182;2023-05-14T03:49:49;8.70;99.90
11538;DHT22;50159;49.426;11.182;2023-05-14T03:52:15;8.70;99.90
11538;DHT22;50159;49.426;11.182;2023-05-14T03:54:42;8.70;99.90
11538;DHT22;50159;49.426;11.182;2023-05-14T03:57:09;8.70;99.90
11538;DHT22;50159;49.426;11.182;2023-05-14T03:59:36;8.70;99.90
11538;DHT22;50159;49.426;11.182;2023-05-14T04:02:02;8.80;99.90
11538;DHT22;50159;49.426;11.182;2023-05-14T04:04:29;8.80;99.90
11538;DHT22;50159;49.426;11.182;2023-05-14T04:06:56;8.80;99.90
11538;DHT22;50159;49.426;11.182;2023-05-14T04:09:22;8.90;99.90
11538;DHT22;50159;49.426;11.182;2023-05-14T04:11:49;8.90;99.90
11538;DHT22;50159;49.426;11.182;2023-05-14T04:14:16;8.90;99.90
11538;DHT22;50159;49.426;11.182;2023-05-14T04:16:43;9.00;99.90
11538;DHT22;50159;49.426;11.182;2023-05-14T04:19:09;9.00;99.90
11538;DHT22;50159;49.426;11.182;2023-05-14T04:21:39;9.00;99.90
11538;DHT22;50159;49.426;11.182;2023-05-14T04:24:06;9.10;99.90
11538;DHT22;50159;49.426;11.182;2023-05-14T04:26:33;9.20;99.90
11538;DHT22;50159;49.426;11.182;2023-05-14T04:29:00;9.20;99.90
11538;DHT22;50159;49.426;11.182;2023-05-14T04:31:29;9.30;99.90
11538;DHT22;50159;49.426;11.182;2023-05-14T04:33:57;9.40;99.90
11538;DHT22;50159;49.426;11.182;2023-05-14T04:36:23;9.40;99.90
11538;DHT22;50159;49.426;11.182;2023-05-14T04:38:50;9.50;99.90
11538;DHT22;50159;49.426;11.182;2023-05-14T04:41:20;9.50;99.90
11538;DHT22;50159;49.426;11.182;2023-05-14T04:43:48;9.80;99.90
11538;DHT22;50159;49.426;11.182;2023-05-14T04:46:15;9.70;99.90
11538;DHT22;50159;49.426;11.182;2023-05-14T04:48:42;9.70;99.90
11538;DHT22;50159;49.426;11.182;2023-05-14T04:51:08;9.70;99.90
11538;DHT22;50159;49.426;11.182;2023-05-14T04:53:35;9.70;99.90
11538;DHT22;50159;49.426;11.182;2023-05-14T04:56:02;9.80;99.90
11538;DHT22;50159;49.426;11.182;2023-05-14T04:58:28;9.80;99.90
11538;DHT22;50159;49.426;11.182;2023-05-14T05:01:00;9.90;99.90
11538;DHT22;50159;49.426;11.182;2023-05-14T05:03:28;9.90;99.90
11538;DHT22;50159;49.426;11.182;2023-05-14T05:05:55;9.90;99.90
11538;DHT22;50159;49.426;11.182;2023-05-14T05:08:22;10.00;99.90
11538;DHT22;50159;49.426;11.182;2023-05-14T05:10:48;10.00;99.90
11538;DHT22;50159;49.426;11.182;2023-05-14T05:13:15;10.00;99.90
11538;DHT22;50159;49.426;11.182;2023-05-14T05:15:42;10.00;99.90
11538;DHT22;50159;49.426;11.182;2023-05-14T05:18:09;10.00;99.90
11538;DHT22;50159;49.426;11.182;2023-05-14T05:20:36;10.00;99.90
11538;DHT22;50159;49.426;11.182;2023-05-14T05:23:02;10.00;99.90
11538;DHT22;50159;49.426;11.182;2023-05-14T05:25:29;10.00;99.90
11538;DHT22;50159;49.426;11.182;2023-05-14T05:27:55;10.10;99.90
11538;DHT22;50159;49.426;11.182;2023-05-14T05:30:22;10.10;99.90
11538;DHT22;50159;49.426;11.182;2023-05-14T05:32:49;10.10;99.90
11538;DHT22;50159;49.426;11.182;2023-05-14T05:35:16;10.10;99.90
11538;DHT22;50159;49.426;11.182;2023-05-14T05:37:42;10.10;99.90
11538;DHT22;50159;49.426;11.182;2023-05-14T05:40:10;10.20;99.90
11538;DHT22;50159;49.426;11.182;2023-05-14T05:42:40;10.20;99.90
11538;DHT22;50159;49.426;11.182;2023-05-14T05:45:07;10.30;99.90
11538;DHT22;50159;49.426;11.182;2023-05-14T05:47:33;10.50;99.90
11538;DHT22;50159;49.426;11.182;2023-05-14T05:50:00;10.60;99.90
11538;DHT22;50159;49.426;11.182;2023-05-14T05:52:27;10.80;99.90
11538;DHT22;50159;49.426;11.182;2023-05-14T05:54:53;11.00;99.90
11538;DHT22;50159;49.426;11.182;2023-05-14T05:57:20;11.20;99.90
11538;DHT22;50159;49.426;11.182;2023-05-14T05:59:50;11.40;99.90
11538;DHT22;50159;49.426;11.182;2023-05-14T06:02:19;11.60;99.90
11538;DHT22;50159;49.426;11.182;2023-05-14T06:04:46;11.80;99.90
11538;DHT22;50159;49.426;11.182;2023-05-14T06:07:13;11.90;99.90
11538;DHT22;50159;49.426;11.182;2023-05-14T06:09:40;12.00;99.90
11538;DHT22;50159;49.426;11.182;2023-05-14T06:12:07;12.20;99.90
11538;DHT22;50159;49.426;11.182;2023-05-14T06:14:33;12.30;99.90
11538;DHT22;50159;49.426;11.182;2023-05-14T06:17:00;12.50;99.90
11538;DHT22;50159;49.426;11.182;2023-05-14T06:19:27;12.50;99.90
11538;DHT22;50159;49.426;11.182;2023-05-14T06:21:53;12.60;99.90
11538;DHT22;50159;49.426;11.182;2023-05-14T06:24:20;12.60;99.90
11538;DHT22;50159;49.426;11.182;2023-05-14T06:26:46;12.60;99.90
11538;DHT22;50159;49.426;11.182;2023-05-14T06:29:14;12.50;99.90
11538;DHT22;50159;49.426;11.182;2023-05-14T06:31:41;12.50;99.90
11538;DHT22;50159;49.426;11.182;2023-05-14T06:34:08;12.60;99.90
11538;DHT22;50159;49.426;11.182;2023-05-14T06:36:34;12.60;99.90
11538;DHT22;50159;49.426;11.182;2023-05-14T06:39:01;12.60;99.90
11538;DHT22;50159;49.426;11.182;2023-05-14T06:41:28;12.60;99.90
11538;DHT22;50159;49.426;11.182;2023-05-14T06:43:55;12.60;99.90
11538;DHT22;50159;49.426;11.182;2023-05-14T06:46:22;12.60;99.90
11538;DHT22;50159;49.426;11.182;2023-05-14T06:48:49;12.60;99.90
11538;DHT22;50159;49.426;11.182;2023-05-14T06:51:15;12.60;99.90
11538;DHT22;50159;49.426;11.182;2023-05-14T06:53:44;12.70;99.90
11538;DHT22;50159;49.426;11.182;2023-05-14T06:56:12;12.80;99.90
11538;DHT22;50159;49.426;11.182;2023-05-14T06:58:40;12.80;99.90
11538;DHT22;50159;49.426;11.182;2023-05-14T07:01:06;12.90;99.90
11538;DHT22;50159;49.426;11.182;2023-05-14T07:03:33;12.90;99.90
11538;DHT22;50159;49.426;11.182;2023-05-14T07:06:00;13.00;99.90
11538;DHT22;50159;49.426;11.182;2023-05-14T07:08:26;13.00;99.90
11538;DHT22;50159;49.426;11.182;2023-05-14T07:10:53;13.10;99.90
11538;DHT22;50159;49.426;11.182;2023-05-14T07:13:20;13.10;99.90
11538;DHT22;50159;49.426;11.182;2023-05-14T07:15:46;13.20;99.90
11538;DHT22;50159;49.426;11.182;2023-05-14T07:18:13;13.30;99.90
11538;DHT22;50159;49.426;11.182;2023-05-14T07:20:40;13.40;99.90
11538;DHT22;50159;49.426;11.182;2023-05-14T07:23:06;13.40;99.90
11538;DHT22;50159;49.426;11.182;2023-05-14T07:25:33;13.50;99.90
11538;DHT22;50159;49.426;11.182;2023-05-14T07:28:00;13.60;99.90
11538;DHT22;50159;49.426;11.182;2023-05-14T07:30:26;13.60;99.90
11538;DHT22;50159;49.426;11.182;2023-05-14T07:32:53;13.60;99.90
11538;DHT22;50159;49.426;11.182;2023-05-14T07:35:20;13.60;99.90
11538;DHT22;50159;49.426;11.182;2023-05-14T07:37:47;13.70;99.90
11538;DHT22;50159;49.426;11.182;2023-05-14T07:40:13;13.80;99.90
11538;DHT22;50159;49.426;11.182;2023-05-14T07:42:40;13.90;99.90
11538;DHT22;50159;49.426;11.182;2023-05-14T07:45:07;14.10;99.90
11538;DHT22;50159;49.426;11.182;2023-05-14T07:47:35;14.20;99.90
11538;DHT22;50159;49.426;11.182;2023-05-14T07:50:02;14.30;99.90
11538;DHT22;50159;49.426;11.182;2023-05-14T07:52:29;14.30;99.90
11538;DHT22;50159;49.426;11.182;2023-05-14T07:54:55;14.30;99.90
11538;DHT22;50159;49.426;11.182;2023-05-14T07:57:22;14.40;99.90
11538;DHT22;50159;49.426;11.182;2023-05-14T07:59:48;14.40;99.90
11538;DHT22;50159;49.426;11.182;2023-05-14T08:02:15;14.50;99.90
11538;DHT22;50159;49.426;11.182;2023-05-14T08:04:43;14.50;99.90
11538;DHT22;50159;49.426;11.182;2023-05-14T08:07:10;14.40;99.90
11538;DHT22;50159;49.426;11.182;2023-05-14T08:09:37;14.30;99.90
11538;DHT22;50159;49.426;11.182;2023-05-14T08:12:04;14.20;99.90
11538;DHT22;50159;49.426;11.182;2023-05-14T08:14:31;14.20;99.90
11538;DHT22;50159;49.426;11.182;2023-05-14T08:16:58;14.30;99.90
11538;DHT22;50159;49.426;11.182;2023-05-14T08:19:24;14.30;99.90
11538;DHT22;50159;49.426;11.182;2023-05-14T08:21:53;14.40;99.90
11538;DHT22;50159;49.426;11.182;2023-05-14T08:24:19;14.30;99.90
11538;DHT22;50159;49.426;11.182;2023-05-14T08:26:46;14.30;99.90
11538;DHT22;50159;49.426;11.182;2023-05-14T08:29:13;14.30;99.90
11538;DHT22;50159;49.426;11.182;2023-05-14T08:31:42;14.40;99.90
11538;DHT22;50159;49.426;11.182;2023-05-14T08:34:08;14.40;99.90
11538;DHT22;50159;49.426;11.182;2023-05-14T08:36:36;14.50;99.90
11538;DHT22;50159;49.426;11.182;2023-05-14T08:39:02;14.50;99.90
11538;DHT22;50159;49.426;11.182;2023-05-14T08:41:29;14.60;99.90
11538;DHT22;50159;49.426;11.182;2023-05-14T08:44:05;14.60;99.90
11538;DHT22;50159;49.426;11.182;2023-05-14T08:46:35;14.50;99.90
11538;DHT22;50159;49.426;11.182;2023-05-14T08:49:12;14.70;99.90
11538;DHT22;50159;49.426;11.182;2023-05-14T08:51:42;14.80;99.90
11538;DHT22;50159;49.426;11.182;2023-05-14T08:54:09;14.90;99.90
11538;DHT22;50159;49.426;11.182;2023-05-14T08:56:41;14.90;99.90
11538;DHT22;50159;49.426;11.182;2023-05-14T08:59:09;15.10;99.90
11538;DHT22;50159;49.426;11.182;2023-05-14T09:01:37;15.10;99.90
11538;DHT22;50159;49.426;11.182;2023-05-14T09:04:05;15.20;99.90
11538;DHT22;50159;49.426;11.182;2023-05-14T09:06:37;15.10;99.90
11538;DHT22;50159;49.426;11.182;2023-05-14T09:09:05;15.10;99.90
11538;DHT22;50159;49.426;11.182;2023-05-14T09:11:32;15.00;99.90
11538;DHT22;50159;49.426;11.182;2023-05-14T09:13:58;14.80;99.90
11538;DHT22;50159;49.426;11.182;2023-05-14T09:16:25;14.70;99.90
11538;DHT22;50159;49.426;11.182;2023-05-14T09:18:53;14.60;99.90
11538;DHT22;50159;49.426;11.182;2023-05-14T09:21:20;14.60;99.90
11538;DHT22;50159;49.426;11.182;2023-05-14T09:23:52;14.60;99.90
11538;DHT22;50159;49.426;11.182;2023-05-14T09:26:22;14.70;99.90
11538;DHT22;50159;49.426;11.182;2023-05-14T09:28:56;14.80;99.90
11538;DHT22;50159;49.426;11.182;2023-05-14T09:31:23;14.90;99.90
11538;DHT22;50159;49.426;11.182;2023-05-14T09:33:50;15.00;99.90
11538;DHT22;50159;49.426;11.182;2023-05-14T09:36:18;15.00;99.90
11538;DHT22;50159;49.426;11.182;2023-05-14T09:38:44;15.10;99.90
11538;DHT22;50159;49.426;11.182;2023-05-14T09:41:11;15.20;99.90
11538;DHT22;50159;49.426;11.182;2023-05-14T09:43:38;15.30;99.90
11538;DHT22;50159;49.426;11.182;2023-05-14T09:46:04;15.40;99.90
11538;DHT22;50159;49.426;11.182;2023-05-14T09:48:31;15.80;99.90
11538;DHT22;50159;49.426;11.182;2023-05-14T09:50:58;16.10;99.90
11538;DHT22;50159;49.426;11.182;2023-05-14T09:53:24;16.30;99.90
11538;DHT22;50159;49.426;11.182;2023-05-14T09:55:51;16.50;99.90
11538;DHT22;50159;49.426;11.182;2023-05-14T09:58:18;16.50;99.20
11538;DHT22;50159;49.426;11.182;2023-05-14T10:00:45;16.50;99.00
11538;DHT22;50159;49.426;11.182;2023-05-14T10:03:14;16.60;98.80
11538;DHT22;50159;49.426;11.182;2023-05-14T10:05:44;16.90;98.60
11538;DHT22;50159;49.426;11.182;2023-05-14T10:08:21;17.30;97.60
11538;DHT22;50159;49.426;11.182;2023-05-14T10:10:58;17.60;97.10
11538;DHT22;50159;49.426;11.182;2023-05-14T10:13:30;17.50;94.30
11538;DHT22;50159;49.426;11.182;2023-05-14T10:18:42;17.30;93.20
11538;DHT22;50159;49.426;11.182;2023-05-14T10:21:13;17.30;92.80
11538;DHT22;50159;49.426;11.182;2023-05-14T10:23:41;17.20;91.90
11538;DHT22;50159;49.426;11.182;2023-05-14T10:26:09;17.30;92.30
11538;DHT22;50159;49.426;11.182;2023-05-14T10:28:36;17.30;92.80
11538;DHT22;50159;49.426;11.182;2023-05-14T10:31:03;17.30;93.00
11538;DHT22;50159;49.426;11.182;2023-05-14T10:33:29;17.20;92.10
11538;DHT22;50159;49.426;11.182;2023-05-14T10:36:00;17.10;92.10
11538;DHT22;50159;49.426;11.182;2023-05-14T10:38:29;17.10;91.40
11538;DHT22;50159;49.426;11.182;2023-05-14T10:41:01;17.10;91.70
11538;DHT22;50159;49.426;11.182;2023-05-14T10:43:29;17.20;92.00
11538;DHT22;50159;49.426;11.182;2023-05-14T10:45:57;17.20;92.00
11538;DHT22;50159;49.426;11.182;2023-05-14T10:48:25;17.40;92.20
11538;DHT22;50159;49.426;11.182;2023-05-14T10:50:53;17.50;91.90
11538;DHT22;50159;49.426;11.182;2023-05-14T10:53:40;17.50;90.40
11538;DHT22;50159;49.426;11.182;2023-05-14T10:56:09;17.50;90.10
11538;DHT22;50159;49.426;11.182;2023-05-14T10:58:41;17.70;90.70
11538;DHT22;50159;49.426;11.182;2023-05-14T11:01:10;17.80;89.30
11538;DHT22;50159;49.426;11.182;2023-05-14T11:03:45;17.70;88.00
11538;DHT22;50159;49.426;11.182;2023-05-14T11:06:14;17.70;88.60
11538;DHT22;50159;49.426;11.182;2023-05-14T11:08:41;17.50;87.30
11538;DHT22;50159;49.426;11.182;2023-05-14T11:11:09;17.30;86.50
11538;DHT22;50159;49.426;11.182;2023-05-14T11:13:38;17.10;86.20
11538;DHT22;50159;49.426;11.182;2023-05-14T11:16:07;17.00;88.70
11538;DHT22;50159;49.426;11.182;2023-05-14T11:18:59;16.90;90.60
11538;DHT22;50159;49.426;11.182;2023-05-14T11:21:27;16.80;90.70
11538;DHT22;50159;49.426;11.182;2023-05-14T11:23:55;16.80;90.50
11538;DHT22;50159;49.426;11.182;2023-05-14T11:26:23;16.80;89.70
11538;DHT22;50159;49.426;11.182;2023-05-14T11:28:49;16.80;89.30
11538;DHT22;50159;49.426;11.182;2023-05-14T11:31:16;16.70;88.70
11538;DHT22;50159;49.426;11.182;2023-05-14T11:33:45;16.80;88.10
11538;DHT22;50159;49.426;11.182;2023-05-14T11:36:12;16.90;89.80
11538;DHT22;50159;49.426;11.182;2023-05-14T11:38:48;17.00;90.20
11538;DHT22;50159;49.426;11.182;2023-05-14T11:41:16;17.00;89.80
11538;DHT22;50159;49.426;11.182;2023-05-14T11:43:46;17.10;90.40
11538;DHT22;50159;49.426;11.182;2023-05-14T11:46:16;17.20;90.40
11538;DHT22;50159;49.426;11.182;2023-05-14T11:48:47;17.20;89.70
11538;DHT22;50159;49.426;11.182;2023-05-14T11:51:14;17.10;87.50
11538;DHT22;50159;49.426;11.182;2023-05-14T11:53:40;17.00;88.00
11538;DHT22;50159;49.426;11.182;2023-05-14T11:56:07;17.00;89.10
11538;DHT22;50159;49.426;11.182;2023-05-14T11:58:35;17.00;89.00
11538;DHT22;50159;49.426;11.182;2023-05-14T12:01:02;17.00;90.00
11538;DHT22;50159;49.426;11.182;2023-05-14T12:03:29;17.00;89.10
11538;DHT22;50159;49.426;11.182;2023-05-14T12:05:57;17.10;88.10
11538;DHT22;50159;49.426;11.182;2023-05-14T12:08:26;17.40;87.90
11538;DHT22;50159;49.426;11.182;2023-05-14T12:10:54;17.50;86.10
11538;DHT22;50159;49.426;11.182;2023-05-14T12:13:25;17.50;85.10
11538;DHT22;50159;49.426;11.182;2023-05-14T12:15:57;17.50;84.30
11538;DHT22;50159;49.426;11.182;2023-05-14T12:18:25;17.50;86.40
11538;DHT22;50159;49.426;11.182;2023-05-14T12:20:52;17.60;86.70
11538;DHT22;50159;49.426;11.182;2023-05-14T12:23:30;17.70;86.80
11538;DHT22;50159;49.426;11.182;2023-05-14T12:26:01;17.70;86.20
11538;DHT22;50159;49.426;11.182;2023-05-14T12:28:29;17.70;86.70
11538;DHT22;50159;49.426;11.182;2023-05-14T12:30:55;17.60;85.60
11538;DHT22;50159;49.426;11.182;2023-05-14T12:33:23;17.60;83.20
11538;DHT22;50159;49.426;11.182;2023-05-14T12:35:54;17.50;81.90
11538;DHT22;50159;49.426;11.182;2023-05-14T12:38:45;17.40;82.60
11538;DHT22;50159;49.426;11.182;2023-05-14T12:41:12;17.40;82.70
11538;DHT22;50159;49.426;11.182;2023-05-14T12:43:43;17.30;83.40
11538;DHT22;50159;49.426;11.182;2023-05-14T12:46:10;17.30;85.40
11538;DHT22;50159;49.426;11.182;2023-05-14T12:48:36;17.20;84.10
11538;DHT22;50159;49.426;11.182;2023-05-14T12:51:03;17.30;86.10
11538;DHT22;50159;49.426;11.182;2023-05-14T12:53:30;17.20;84.40
11538;DHT22;50159;49.426;11.182;2023-05-14T12:55:56;17.20;83.30
11538;DHT22;50159;49.426;11.182;2023-05-14T12:58:23;17.20;83.80
11538;DHT22;50159;49.426;11.182;2023-05-14T13:00:50;17.20;85.00
11538;DHT22;50159;49.426;11.182;2023-05-14T13:03:16;17.30;83.80
11538;DHT22;50159;49.426;11.182;2023-05-14T13:05:43;17.30;82.80
11538;DHT22;50159;49.426;11.182;2023-05-14T13:08:10;17.30;82.00
11538;DHT22;50159;49.426;11.182;2023-05-14T13:10:40;17.40;84.10
11538;DHT22;50159;49.426;11.182;2023-05-14T13:13:06;17.60;83.90
11538;DHT22;50159;49.426;11.182;2023-05-14T13:15:35;17.70;83.50
11538;DHT22;50159;49.426;11.182;2023-05-14T13:18:02;17.70;80.50
11538;DHT22;50159;49.426;11.182;2023-05-14T13:20:29;17.90;80.90
11538;DHT22;50159;49.426;11.182;2023-05-14T13:22:56;18.20;82.10
11538;DHT22;50159;49.426;11.182;2023-05-14T13:25:23;18.50;82.10
11538;DHT22;50159;49.426;11.182;2023-05-14T13:27:50;18.80;80.70
11538;DHT22;50159;49.426;11.182;2023-05-14T13:30:17;18.80;77.30
11538;DHT22;50159;49.426;11.182;2023-05-14T13:32:44;18.80;76.60
11538;DHT22;50159;49.426;11.182;2023-05-14T13:35:11;18.80;76.40
11538;DHT22;50159;49.426;11.182;2023-05-14T13:37:38;18.90;76.90
11538;DHT22;50159;49.426;11.182;2023-05-14T13:40:05;18.90;75.50
11538;DHT22;50159;49.426;11.182;2023-05-14T13:42:35;18.90;74.70
11538;DHT22;50159;49.426;11.182;2023-05-14T13:45:02;18.80;74.00
11538;DHT22;50159;49.426;11.182;2023-05-14T13:47:29;18.80;73.30
11538;DHT22;50159;49.426;11.182;2023-05-14T13:49:56;19.00;75.00
11538;DHT22;50159;49.426;11.182;2023-05-14T13:52:23;19.40;74.70
11538;DHT22;50159;49.426;11.182;2023-05-14T13:54:50;19.70;72.80
11538;DHT22;50159;49.426;11.182;2023-05-14T13:57:16;19.90;72.50
11538;DHT22;50159;49.426;11.182;2023-05-14T13:59:45;20.20;69.80
11538;DHT22;50159;49.426;11.182;2023-05-14T14:02:11;20.70;70.10
11538;DHT22;50159;49.426;11.182;2023-05-14T14:04:38;21.00;68.30
11538;DHT22;50159;49.426;11.182;2023-05-14T14:07:05;21.00;67.00
11538;DHT22;50159;49.426;11.182;2023-05-14T14:09:31;20.70;62.80
11538;DHT22;50159;49.426;11.182;2023-05-14T14:12:02;20.30;63.80
11538;DHT22;50159;49.426;11.182;2023-05-14T14:14:29;20.00;66.20
11538;DHT22;50159;49.426;11.182;2023-05-14T14:16:56;19.70;66.70
11538;DHT22;50159;49.426;11.182;2023-05-14T14:19:22;19.50;67.50
11538;DHT22;50159;49.426;11.182;2023-05-14T14:21:49;19.10;66.40
11538;DHT22;50159;49.426;11.182;2023-05-14T14:24:21;18.80;68.00
11538;DHT22;50159;49.426;11.182;2023-05-14T14:26:48;18.50;69.50
11538;DHT22;50159;49.426;11.182;2023-05-14T14:29:15;18.20;70.60
11538;DHT22;50159;49.426;11.182;2023-05-14T14:31:42;18.00;71.80
11538;DHT22;50159;49.426;11.182;2023-05-14T14:34:09;17.90;73.20
11538;DHT22;50159;49.426;11.182;2023-05-14T14:36:36;17.80;74.80
11538;DHT22;50159;49.426;11.182;2023-05-14T14:39:02;17.80;75.10
11538;DHT22;50159;49.426;11.182;2023-05-14T14:41:30;17.80;75.60
11538;DHT22;50159;49.426;11.182;2023-05-14T14:43:56;17.70;75.80
11538;DHT22;50159;49.426;11.182;2023-05-14T14:46:23;17.70;76.00
11538;DHT22;50159;49.426;11.182;2023-05-14T14:48:50;17.70;76.80
11538;DHT22;50159;49.426;11.182;2023-05-14T14:51:17;17.70;77.20
11538;DHT22;50159;49.426;11.182;2023-05-14T14:53:43;17.70;76.30
11538;DHT22;50159;49.426;11.182;2023-05-14T14:56:10;17.70;75.80
11538;DHT22;50159;49.426;11.182;2023-05-14T14:58:37;17.80;76.40
11538;DHT22;50159;49.426;11.182;2023-05-14T15:01:04;17.90;75.80
11538;DHT22;50159;49.426;11.182;2023-05-14T15:03:31;18.10;75.00
11538;DHT22;50159;49.426;11.182;2023-05-14T15:05:58;18.20;74.70
11538;DHT22;50159;49.426;11.182;2023-05-14T15:08:25;18.40;74.00
11538;DHT22;50159;49.426;11.182;2023-05-14T15:10:54;18.50;72.90
11538;DHT22;50159;49.426;11.182;2023-05-14T15:13:21;18.60;73.10
11538;DHT22;50159;49.426;11.182;2023-05-14T15:15:49;18.60;72.70
11538;DHT22;50159;49.426;11.182;2023-05-14T15:18:16;18.60;71.20
11538;DHT22;50159;49.426;11.182;2023-05-14T15:20:43;18.60;71.30
11538;DHT22;50159;49.426;11.182;2023-05-14T15:23:09;18.50;71.40
11538;DHT22;50159;49.426;11.182;2023-05-14T15:25:37;18.50;73.30
11538;DHT22;50159;49.426;11.182;2023-05-14T15:28:04;18.40;73.10
11538;DHT22;50159;49.426;11.182;2023-05-14T15:30:32;18.40;73.20